Terminal Aerodrome Forecast
Issued by NWS Mt. Holly, NJ

Home | Current Version | Previous Version | Text Only | Print | Product List | Glossary On
Versions: 1 2 3 4 5 6 7 8 9 10 11 12 13 14 15 16 17 18 19
000
FTUS41 KPHI 292340
TAFABE
TAF
KABE 292340Z 3000/3024 VRB03KT P6SM SKC
      TEMPO 3000/3001 -SHRA SCT070
     FM301000 VRB03KT 5SM BR BKN200
     FM301400 12004KT P6SM SCT050 BKN100
     FM301800 15005KT 5SM SHRA OVC050=

USA.gov is the U.S. government's official web portal to all federal, state and local government web resources and services.